Time;durP1;ratioP1;P1;durP2;ratioP2;P2;SDS_P1;SDS_P2;PMS_P1;PMS_P2;Temp;Humidity;BMP_temperature;BMP_pressure;BME280_temperature;BME280_humidity;BME280_pressure;Samples;Min_cycle;Max_cycle;Signal;HPM_P1;HPM_P2
2023/07/25 00:00:48;;;;;;;20.02;4.40;;;;;;;32.00;41.42;95774.59;6277163;22;20003;-29
2023/07/25 00:13:19;;;;;;;19.13;5.07;;;;;;;31.93;41.62;95762.16;6277309;22;20078;-29
2023/07/25 00:42:39;;;;;;;17.35;5.68;;;;;;;32.02;41.66;95721.44;6278240;22;20452;-28
2023/07/25 00:58:31;;;;;;;18.30;5.60;;;;;;;31.79;41.66;95710.59;6307435;22;20384;-28
2023/07/25 01:14:23;;;;;;;17.95;4.72;;;;;;;31.61;40.87;95686.78;6307359;22;20014;-28
2023/07/25 01:27:37;;;;;;;18.40;4.78;;;;;;;31.53;41.08;95658.88;6307179;22;20037;-28
2023/07/25 01:43:29;;;;;;;15.73;4.78;;;;;;;31.72;41.04;95638.59;6306625;22;20471;-28
2023/07/25 02:12:48;;;;;;;16.02;5.18;;;;;;;31.59;41.45;95653.00;6306618;22;20066;-28
2023/07/25 02:28:41;;;;;;;16.55;5.00;;;;;;;31.43;42.72;95644.84;6308954;22;20091;-28
2023/07/25 02:58:00;;;;;;;18.63;4.55;;;;;;;31.39;42.75;95576.56;6308964;22;20061;-28
2023/07/25 03:27:58;;;;;;;17.25;4.50;;;;;;;31.44;43.24;95578.34;6308117;22;20400;-28
2023/07/25 03:57:44;;;;;;;17.08;4.65;;;;;;;31.27;45.59;95694.06;6308420;22;20014;-28
2023/07/25 04:13:37;;;;;;;20.95;5.25;;;;;;;31.47;46.18;95674.50;6307577;22;20037;-28
2023/07/25 04:57:46;;;;;;;19.80;5.00;;;;;;;31.07;50.09;95636.44;6307359;22;20070;-28
2023/07/25 05:13:38;;;;;;;19.27;4.65;;;;;;;31.27;50.05;95570.06;6307239;22;20391;-28
2023/07/25 07:13:50;;;;;;;17.35;4.38;;;;;;;31.32;49.60;95597.03;6277263;22;20549;-28
2023/07/25 07:16:15;;;;;;;21.50;5.25;;;;;;;31.38;49.83;95573.03;6277229;22;20060;-28
2023/07/25 07:28:46;;;;;;;22.33;6.63;;;;;;;31.46;48.83;95457.28;6277579;22;20018;-28
2023/07/25 07:58:05;;;;;;;14.20;5.57;;;;;;;31.51;48.89;95431.75;6277125;22;20018;-28
2023/07/25 08:13:57;;;;;;;15.10;4.85;;;;;;;31.36;50.40;95502.84;6276771;22;20087;-29
2023/07/25 08:43:18;;;;;;;20.23;5.68;;;;;;;31.52;47.95;95475.28;6276711;22;20011;-28
2023/07/25 08:59:11;;;;;;;16.85;5.22;;;;;;;31.50;48.56;95463.91;6276453;22;20034;-28
2023/07/25 09:15:04;;;;;;;23.58;5.57;;;;;;;31.67;46.28;95468.63;6276509;22;20022;-28
2023/07/25 09:28:05;;;;;;;17.80;5.40;;;;;;;31.97;45.31;95451.19;6276383;22;20068;-28
2023/07/25 09:44:05;;;;;;;15.95;5.15;;;;;;;31.90;45.00;95420.53;6276115;22;20019;-28
2023/07/25 10:13:53;;;;;;;21.40;5.50;;;;;;;32.24;44.29;95386.47;6275325;22;20031;-28
2023/07/25 10:43:12;;;;;;;19.45;5.72;;;;;;;32.32;44.13;95401.03;6277971;22;20453;-28
2023/07/25 11:29:41;;;;;;;27.40;6.85;;;;;;;32.44;51.36;95297.31;6277000;22;20336;-28
2023/07/25 11:43:08;;;;;;;19.67;6.20;;;;;;;32.67;50.65;95358.47;6277419;22;20069;-29
2023/07/25 12:13:11;;;;;;;19.15;5.95;;;;;;;32.60;49.44;95368.56;6183689;23;20016;-29
2023/07/25 12:29:12;;;;;;;18.05;4.93;;;;;;;32.53;42.96;95363.84;6182890;23;20052;-28
2023/07/25 12:58:31;;;;;;;15.43;5.05;;;;;;;32.47;41.56;95319.28;6275780;22;20401;-28
2023/07/25 13:14:23;;;;;;;15.90;5.38;;;;;;;32.55;45.99;95347.16;6276407;22;20093;-29
2023/07/25 13:43:42;;;;;;;18.05;6.28;;;;;;;32.65;47.67;95363.94;6276177;22;20034;-28
2023/07/25 14:13:53;;;;;;;18.80;4.90;;;;;;;32.59;45.64;95375.50;6275635;22;20021;-28
2023/07/25 14:43:19;;;;;;;11.55;4.88;;;;;;;32.59;39.35;95397.22;6275435;22;20499;-28
2023/07/25 14:59:11;;;;;;;7.80;4.57;;;;;;;32.74;37.92;95391.25;6275648;22;20085;-28
2023/07/25 15:43:23;;;;;;;7.22;3.72;;;;;;;32.55;37.03;95380.84;6277317;22;20015;-29
2023/07/25 15:59:17;;;;;;;5.85;3.80;;;;;;;32.53;35.26;95380.69;6276841;22;20151;-29
2023/07/25 16:43:31;;;;;;;;;;;;;;;32.30;34.31;95398.09;6277141;22;20521;-28
2023/07/25 16:59:23;;;;;;;4.43;3.33;;;;;;;32.27;33.36;95404.91;6276539;22;20070;-29
2023/07/25 17:28:42;;;;;;;8.50;3.95;;;;;;;32.11;32.10;95398.91;6276257;22;20014;-29
2023/07/25 17:58:30;;;;;;;5.47;3.60;;;;;;;32.14;31.89;95388.56;6276337;22;20061;-29
2023/07/25 18:14:23;;;;;;;7.35;3.08;;;;;;;32.10;31.99;95419.13;6245166;23;20015;-28
2023/07/25 18:43:54;;;;;;;9.15;3.42;;;;;;;31.76;35.23;95437.81;6245366;23;20082;-29
2023/07/25 19:13:32;;;;;;;12.73;4.22;;;;;;;31.47;42.67;95467.88;6277687;22;20057;-30
2023/07/25 19:29:26;;;;;;;9.85;4.13;;;;;;;31.41;44.73;95464.63;6277449;22;20015;-29
2023/07/25 19:58:45;;;;;;;19.70;4.75;;;;;;;31.04;45.71;95484.31;6276694;22;20018;-29
2023/07/25 20:28:38;;;;;;;13.32;4.32;;;;;;;30.94;45.72;95497.56;6276762;22;20057;-28
2023/07/25 20:44:30;;;;;;;12.73;4.18;;;;;;;31.05;45.77;95501.88;6276515;22;20062;-30
2023/07/25 21:13:50;;;;;;;17.95;4.00;;;;;;;30.70;46.21;95484.53;6276352;22;20115;-30
2023/07/25 21:43:42;;;;;;;13.65;3.47;;;;;;;30.63;45.75;95500.13;6276271;22;20496;-29
2023/07/25 21:59:34;;;;;;;11.65;3.50;;;;;;;30.58;46.06;95517.19;6275481;22;20088;-29
2023/07/25 22:28:53;;;;;;;11.02;3.10;;;;;;;30.59;45.59;95513.06;6275809;22;20022;-29
2023/07/25 22:31:19;;;;;;;14.68;3.58;;;;;;;30.55;45.59;95516.28;6274994;22;20449;-29
2023/07/25 22:43:49;;;;;;;11.40;3.60;;;;;;;30.53;45.84;95521.75;6278139;22;20067;-30
2023/07/25 23:13:45;;;;;;;12.52;3.72;;;;;;;30.36;46.37;95530.91;6277949;22;20030;-29
2023/07/25 23:29:37;;;;;;;13.25;3.95;;;;;;;30.33;45.89;95520.88;6277222;22;20099;-26
2023/07/25 23:58:57;;;;;;;12.23;3.42;;;;;;;30.19;41.82;95516.97;6276853;22;20014;-27
